createdAt,value
2023-10-12T00:00:28.189Z,1.88
2023-10-12T00:03:00.422Z,2.08
2023-10-12T00:05:30.480Z,2.22
2023-10-12T00:08:02.364Z,2.03
2023-10-12T00:10:41.933Z,2.67
2023-10-12T00:13:13.039Z,2.28
2023-10-12T00:15:47.274Z,2.25
2023-10-12T00:18:18.256Z,2.45
2023-10-12T00:20:52.864Z,1.80
2023-10-12T00:23:21.565Z,2.85
2023-10-12T00:25:56.021Z,2.13
2023-10-12T00:28:39.280Z,2.22
2023-10-12T00:31:18.165Z,2.00
2023-10-12T00:33:49.640Z,1.60
2023-10-12T00:36:23.333Z,2.65
2023-10-12T00:38:53.607Z,2.22
2023-10-12T00:41:26.109Z,2.35
2023-10-12T00:44:09.705Z,2.15
2023-10-12T00:47:08.269Z,2.30
2023-10-12T00:49:41.448Z,2.28
2023-10-12T00:52:15.018Z,2.85
2023-10-12T00:54:50.756Z,2.30
2023-10-12T00:57:20.158Z,2.08
2023-10-12T00:59:52.723Z,2.15
2023-10-12T01:02:25.764Z,2.22
2023-10-12T01:04:55.405Z,2.30
2023-10-12T01:07:27.128Z,2.13
2023-10-12T01:10:04.885Z,2.35
2023-10-12T01:12:35.473Z,2.35
2023-10-12T01:15:12.047Z,2.47
2023-10-12T01:17:42.503Z,2.03
2023-10-12T01:20:17.640Z,1.83
2023-10-12T01:22:48.577Z,1.55
2023-10-12T01:25:22.927Z,1.85
2023-10-12T01:27:54.236Z,2.15
2023-10-12T01:30:24.264Z,2.05
2023-10-12T01:32:55.512Z,1.92
2023-10-12T01:35:34.246Z,1.75
2023-10-12T01:38:06.407Z,2.17
2023-10-12T01:40:45.378Z,2.30
2023-10-12T01:43:15.919Z,2.20
2023-10-12T01:45:45.139Z,1.75
2023-10-12T01:48:17.743Z,1.60
2023-10-12T01:50:48.319Z,1.98
2023-10-12T01:53:30.282Z,1.42
2023-10-12T01:56:00.285Z,2.20
2023-10-12T01:58:30.947Z,2.03
2023-10-12T02:01:07.645Z,2.22
2023-10-12T02:03:44.097Z,1.77
2023-10-12T02:06:18.337Z,1.85
2023-10-12T02:08:53.321Z,1.95
2023-10-12T02:11:43.934Z,1.92
2023-10-12T02:14:13.782Z,2.45
2023-10-12T02:16:54.516Z,2.20
2023-10-12T02:19:38.993Z,1.88
2023-10-12T02:22:08.007Z,1.85
2023-10-12T02:24:38.507Z,2.47
2023-10-12T02:27:07.472Z,2.13
2023-10-12T02:29:37.970Z,2.10
2023-10-12T02:32:19.290Z,2.13
2023-10-12T02:34:48.170Z,1.85
2023-10-12T02:37:20.546Z,2.15
2023-10-12T02:39:55.160Z,1.98
2023-10-12T02:42:39.372Z,2.13
2023-10-12T02:45:18.870Z,2.33
2023-10-12T02:47:52.184Z,1.92
2023-10-12T02:50:30.248Z,2.15
2023-10-12T02:53:08.363Z,2.40
2023-10-12T02:55:44.112Z,1.80
2023-10-12T02:58:24.562Z,2.05
2023-10-12T03:00:57.500Z,2.10
2023-10-12T03:03:34.707Z,1.75
2023-10-12T03:06:08.974Z,2.13
2023-10-12T03:09:03.725Z,1.80
2023-10-12T03:11:34.040Z,1.73
2023-10-12T03:14:14.441Z,2.13
2023-10-12T03:16:43.570Z,1.65
2023-10-12T03:19:24.719Z,2.13
2023-10-12T03:21:53.933Z,1.30
2023-10-12T03:24:31.027Z,1.30
2023-10-12T03:27:12.584Z,2.05
2023-10-12T03:29:52.345Z,1.50
2023-10-12T03:32:24.728Z,2.08
2023-10-12T03:34:57.794Z,1.77
2023-10-12T03:37:40.950Z,1.48
2023-10-12T03:40:24.462Z,1.70
2023-10-12T03:42:56.222Z,1.40
2023-10-12T03:45:34.934Z,1.67
2023-10-12T03:48:21.434Z,1.70
2023-10-12T03:51:00.048Z,1.77
2023-10-12T03:53:32.781Z,2.15
2023-10-12T03:56:02.720Z,1.73
2023-10-12T03:58:39.849Z,2.42
2023-10-12T04:01:12.005Z,1.83
2023-10-12T04:03:45.073Z,1.98
2023-10-12T04:06:24.410Z,1.50
2023-10-12T04:08:54.288Z,1.40
2023-10-12T04:11:52.272Z,1.88
2023-10-12T04:14:36.544Z,1.38
2023-10-12T04:17:18.209Z,1.75
2023-10-12T04:20:01.374Z,1.60
2023-10-12T04:22:36.583Z,1.70
2023-10-12T04:25:14.738Z,1.77
2023-10-12T04:27:51.790Z,1.45
2023-10-12T04:30:30.358Z,1.15
2023-10-12T04:33:13.108Z,1.95
2023-10-12T04:35:58.674Z,1.70
2023-10-12T04:38:47.560Z,1.48
2023-10-12T04:41:27.263Z,1.60
2023-10-12T04:44:08.112Z,2.25
2023-10-12T04:46:48.477Z,1.95
2023-10-12T04:49:40.256Z,1.63
2023-10-12T04:52:17.889Z,1.50
2023-10-12T04:55:05.835Z,1.52
2023-10-12T04:57:35.538Z,1.67
2023-10-12T05:00:25.589Z,1.60
2023-10-12T05:03:04.002Z,1.60
2023-10-12T05:05:51.114Z,1.40
2023-10-12T05:08:21.103Z,1.40
2023-10-12T05:10:49.729Z,1.88
2023-10-12T05:13:23.610Z,1.90
2023-10-12T05:16:06.732Z,1.67
2023-10-12T05:18:38.801Z,1.20
2023-10-12T05:21:10.263Z,1.40
2023-10-12T05:23:40.297Z,1.50
2023-10-12T05:26:12.005Z,1.30
2023-10-12T05:28:59.454Z,1.33
2023-10-12T05:31:40.576Z,1.48
2023-10-12T05:34:27.855Z,1.40
2023-10-12T05:36:56.709Z,1.65
2023-10-12T05:39:28.882Z,1.40
2023-10-12T05:41:57.949Z,1.52
2023-10-12T05:44:28.057Z,1.35
2023-10-12T05:47:01.507Z,1.60
2023-10-12T05:49:34.746Z,1.83
2023-10-12T05:52:07.080Z,1.42
2023-10-12T05:54:36.336Z,1.58
2023-10-12T05:57:09.826Z,1.30
2023-10-12T05:59:39.759Z,1.40
2023-10-12T06:02:10.853Z,1.73
2023-10-12T06:04:44.240Z,1.38
2023-10-12T06:07:13.898Z,1.50
2023-10-12T06:09:42.794Z,1.50
2023-10-12T06:12:14.250Z,1.60
2023-10-12T06:14:54.177Z,1.80
2023-10-12T06:17:32.925Z,1.55
2023-10-12T06:20:12.870Z,1.33
2023-10-12T06:22:41.737Z,1.70
2023-10-12T06:25:19.023Z,1.83
2023-10-12T06:27:49.576Z,1.42
2023-10-12T06:30:24.541Z,1.38
2023-10-12T06:32:53.533Z,1.65
2023-10-12T06:35:34.875Z,1.45
2023-10-12T06:38:24.021Z,1.60
2023-10-12T06:41:02.053Z,1.73
2023-10-12T06:43:48.456Z,1.40
2023-10-12T06:46:19.468Z,1.33
2023-10-12T06:48:48.642Z,1.33
2023-10-12T06:51:19.658Z,1.60
2023-10-12T06:53:54.909Z,1.42
2023-10-12T06:56:30.124Z,1.20
2023-10-12T06:59:22.348Z,1.38
2023-10-12T07:01:54.930Z,1.25
2023-10-12T07:04:29.124Z,0.93
2023-10-12T07:07:01.504Z,1.20
2023-10-12T07:09:40.491Z,1.45
2023-10-12T07:12:10.600Z,1.30
2023-10-12T07:14:44.114Z,1.48
2023-10-12T07:17:12.891Z,1.48
2023-10-12T07:19:43.261Z,1.27
2023-10-12T07:22:17.384Z,1.20
2023-10-12T07:24:46.228Z,1.15
2023-10-12T07:27:19.662Z,1.35
2023-10-12T07:29:52.053Z,1.50
2023-10-12T07:32:31.893Z,0.95
2023-10-12T07:35:08.493Z,1.55
2023-10-12T07:37:43.053Z,1.48
2023-10-12T07:40:24.378Z,1.20
2023-10-12T07:42:53.503Z,1.40
2023-10-12T07:45:29.113Z,0.98
2023-10-12T07:48:03.494Z,1.38
2023-10-12T07:50:38.731Z,0.98
2023-10-12T07:53:22.997Z,1.05
2023-10-12T07:56:01.876Z,1.00
2023-10-12T07:58:31.103Z,1.00
2023-10-12T08:01:20.913Z,1.10
2023-10-12T08:03:53.391Z,1.15
2023-10-12T08:06:29.483Z,1.00
2023-10-12T08:09:05.981Z,0.90
2023-10-12T08:11:36.489Z,1.33
2023-10-12T08:14:21.354Z,1.17
2023-10-12T08:17:16.434Z,1.50
2023-10-12T08:19:44.665Z,1.05
2023-10-12T08:22:19.006Z,1.30
2023-10-12T08:24:50.857Z,1.13
2023-10-12T08:27:20.216Z,1.00
2023-10-12T08:30:06.316Z,1.33
2023-10-12T08:32:36.169Z,1.00
2023-10-12T08:35:33.227Z,1.13
2023-10-12T08:38:14.424Z,0.80
2023-10-12T08:41:03.848Z,0.95
2023-10-12T08:43:46.700Z,0.75
2023-10-12T08:46:39.039Z,0.73
2023-10-12T08:49:24.191Z,1.00
2023-10-12T08:52:06.997Z,0.80
2023-10-12T08:54:39.457Z,1.00
2023-10-12T08:57:17.662Z,0.85
2023-10-12T08:59:58.732Z,0.73
2023-10-12T09:02:27.997Z,0.65
2023-10-12T09:04:58.456Z,0.90
2023-10-12T09:07:39.268Z,0.90
2023-10-12T09:10:27.373Z,1.00
2023-10-12T09:12:57.589Z,0.80
2023-10-12T09:15:31.497Z,0.73
2023-10-12T09:18:01.103Z,0.88
2023-10-12T09:20:31.055Z,0.65
2023-10-12T09:23:12.922Z,0.90
2023-10-12T09:26:03.822Z,0.60
2023-10-12T09:28:43.980Z,0.95
2023-10-12T09:31:15.309Z,0.60
2023-10-12T09:33:46.632Z,0.80
2023-10-12T09:36:16.162Z,0.88
2023-10-12T09:38:44.797Z,0.75
2023-10-12T09:41:16.114Z,0.85
2023-10-12T09:43:55.045Z,0.90
2023-10-12T09:46:27.206Z,1.10
2023-10-12T09:48:59.708Z,0.70
2023-10-12T09:51:33.841Z,1.10
2023-10-12T09:54:17.186Z,0.80
2023-10-12T09:56:53.894Z,0.60
2023-10-12T09:59:25.027Z,0.80
2023-10-12T10:02:02.831Z,0.75
2023-10-12T10:04:36.203Z,0.77
2023-10-12T10:07:20.149Z,0.73
2023-10-12T10:09:49.786Z,0.90
2023-10-12T10:12:19.962Z,0.75
2023-10-12T10:14:55.083Z,0.77
2023-10-12T10:17:26.952Z,1.00
2023-10-12T10:20:30.654Z,0.65
2023-10-12T10:23:02.763Z,0.73
2023-10-12T10:25:35.492Z,0.65
2023-10-12T10:28:10.294Z,0.90
2023-10-12T10:30:42.963Z,0.60
2023-10-12T10:33:15.160Z,0.75
2023-10-12T10:36:01.793Z,1.00
2023-10-12T10:38:34.777Z,0.70
2023-10-12T10:41:08.931Z,0.70
2023-10-12T10:43:38.769Z,0.70
2023-10-12T10:46:12.370Z,0.68
2023-10-12T10:51:19.411Z,0.63
2023-10-12T10:53:55.325Z,0.60
2023-10-12T10:56:35.591Z,0.60
2023-10-12T10:59:06.236Z,1.10
2023-10-12T11:01:36.924Z,0.70
2023-10-12T11:04:10.159Z,0.50
2023-10-12T11:06:40.749Z,0.70
2023-10-12T11:09:15.052Z,0.90
2023-10-12T11:11:46.748Z,0.60
2023-10-12T11:14:19.360Z,0.60
2023-10-12T11:16:49.762Z,0.70
2023-10-12T11:19:20.703Z,0.70
2023-10-12T11:21:53.484Z,0.73
2023-10-12T11:24:25.156Z,0.60
2023-10-12T11:26:55.813Z,0.50
2023-10-12T11:29:25.534Z,0.60
2023-10-12T11:32:11.049Z,0.80
2023-10-12T11:34:45.848Z,0.70
2023-10-12T11:37:15.898Z,0.70
2023-10-12T11:39:45.264Z,0.68
2023-10-12T11:42:14.648Z,0.57
2023-10-12T11:44:46.738Z,0.50
2023-10-12T11:47:38.778Z,0.80
2023-10-12T11:50:14.889Z,0.50
2023-10-12T11:52:51.395Z,0.60
2023-10-12T11:55:21.285Z,0.57
2023-10-12T11:57:55.766Z,0.60
2023-10-12T12:00:28.352Z,0.63
2023-10-12T12:03:01.121Z,0.82
2023-10-12T12:05:33.568Z,0.65
2023-10-12T12:08:07.372Z,0.40
2023-10-12T12:10:46.922Z,0.60
2023-10-12T12:13:17.349Z,0.52
2023-10-12T12:15:46.384Z,0.70
2023-10-12T12:18:20.440Z,0.50
2023-10-12T12:20:50.899Z,0.47
2023-10-12T12:23:19.995Z,0.38
2023-10-12T12:25:49.020Z,0.65
2023-10-12T12:28:18.253Z,0.50
2023-10-12T12:30:58.485Z,0.60
2023-10-12T12:33:28.964Z,0.50
2023-10-12T12:36:02.463Z,0.68
2023-10-12T12:38:45.560Z,0.57
2023-10-12T12:41:28.275Z,0.77
2023-10-12T12:44:00.173Z,0.43
2023-10-12T12:46:31.027Z,0.50
2023-10-12T12:48:59.944Z,0.50
2023-10-12T12:51:30.294Z,0.40
2023-10-12T12:54:03.353Z,0.50
2023-10-12T12:56:32.048Z,0.50
2023-10-12T12:59:01.459Z,0.40
2023-10-12T13:01:32.388Z,0.40
2023-10-12T13:04:02.618Z,0.47
2023-10-12T13:06:34.716Z,0.65
2023-10-12T13:09:04.044Z,0.95
2023-10-12T13:11:33.370Z,0.50
2023-10-12T13:14:02.332Z,0.45
2023-10-12T13:16:31.134Z,0.40
2023-10-12T13:19:01.279Z,0.40
2023-10-12T13:21:30.016Z,0.30
2023-10-12T13:24:00.082Z,0.40
2023-10-12T13:26:28.952Z,0.40
2023-10-12T13:28:57.909Z,0.40
2023-10-12T13:31:27.523Z,0.60
2023-10-12T13:33:56.586Z,0.55
2023-10-12T13:36:26.594Z,0.38
2023-10-12T13:38:55.531Z,0.40
2023-10-12T13:41:25.742Z,1.05
2023-10-12T13:43:54.643Z,0.40
2023-10-12T13:46:23.917Z,0.50
2023-10-12T13:48:54.607Z,0.60
2023-10-12T13:51:32.534Z,0.50
2023-10-12T13:54:03.108Z,0.60
2023-10-12T13:56:36.012Z,0.60
2023-10-12T13:59:06.321Z,0.50
2023-10-12T14:01:37.754Z,0.40
2023-10-12T14:04:28.634Z,0.50
2023-10-12T14:07:02.432Z,0.40
2023-10-12T14:09:32.519Z,0.47
2023-10-12T14:12:02.663Z,0.40
2023-10-12T14:14:31.440Z,0.40
2023-10-12T14:17:00.250Z,0.63
2023-10-12T14:19:29.543Z,0.50
2023-10-12T14:22:01.279Z,0.40
2023-10-12T14:24:35.167Z,0.40
2023-10-12T14:27:07.877Z,0.45
2023-10-12T14:29:37.838Z,0.50
2023-10-12T14:32:06.785Z,0.40
2023-10-12T14:34:35.751Z,0.40
2023-10-12T14:37:04.975Z,0.50
2023-10-12T14:39:35.410Z,0.57
2023-10-12T14:42:07.173Z,0.60
2023-10-12T14:44:35.856Z,0.52
2023-10-12T14:47:07.872Z,0.45
2023-10-12T14:49:37.836Z,0.40
2023-10-12T14:52:09.327Z,0.50
2023-10-12T14:54:38.208Z,0.55
2023-10-12T14:57:11.525Z,0.45
2023-10-12T14:59:41.324Z,0.55
2023-10-12T15:02:11.877Z,0.40
2023-10-12T15:04:43.343Z,0.55
2023-10-12T15:07:14.102Z,0.50
2023-10-12T15:09:49.888Z,0.40
2023-10-12T15:12:20.815Z,0.60
2023-10-12T15:14:52.166Z,0.50
2023-10-12T15:17:20.987Z,0.55
2023-10-12T15:19:49.859Z,0.40
2023-10-12T15:22:19.459Z,0.60
2023-10-12T15:24:48.313Z,0.50
2023-10-12T15:27:17.245Z,0.45
2023-10-12T15:29:49.164Z,0.98
2023-10-12T15:32:18.012Z,0.40
2023-10-12T15:34:46.775Z,0.43
2023-10-12T15:37:15.613Z,0.60
2023-10-12T15:39:47.439Z,0.40
2023-10-12T15:42:16.262Z,0.40
2023-10-12T15:44:44.886Z,0.63
2023-10-12T15:47:15.094Z,0.50
2023-10-12T15:49:44.017Z,0.40
2023-10-12T15:52:13.661Z,0.47
2023-10-12T15:54:42.333Z,0.45
2023-10-12T15:57:12.603Z,0.50
2023-10-12T15:59:44.439Z,0.57
2023-10-12T16:02:15.354Z,0.40
2023-10-12T16:04:46.916Z,0.40
2023-10-12T16:07:18.536Z,0.50
2023-10-12T16:09:49.076Z,0.45
2023-10-12T16:12:20.042Z,0.70
2023-10-12T16:14:51.973Z,0.90
2023-10-12T16:17:23.337Z,0.40
2023-10-12T16:19:52.552Z,0.50
2023-10-12T16:22:21.277Z,0.52
2023-10-12T16:24:50.962Z,0.60
2023-10-12T16:27:19.880Z,0.55
2023-10-12T16:29:59.609Z,0.50
2023-10-12T16:32:30.923Z,0.40
2023-10-12T16:35:00.509Z,0.60
2023-10-12T16:37:29.380Z,0.40
2023-10-12T16:39:58.788Z,0.50
2023-10-12T16:42:28.102Z,0.45
2023-10-12T16:45:02.452Z,0.40
2023-10-12T16:47:35.511Z,0.47
2023-10-12T16:50:05.991Z,0.50
2023-10-12T16:52:34.739Z,0.50
2023-10-12T16:55:05.025Z,0.40
2023-10-12T16:57:33.972Z,0.50
2023-10-12T17:00:02.634Z,0.40
2023-10-12T17:02:34.371Z,0.52
2023-10-12T17:05:03.765Z,0.45
2023-10-12T17:07:33.584Z,0.60
2023-10-12T17:10:02.370Z,0.50
2023-10-12T17:12:31.041Z,0.60
2023-10-12T17:15:02.483Z,0.57
2023-10-12T17:17:34.302Z,0.50
2023-10-12T17:20:06.994Z,0.52
2023-10-12T17:22:36.078Z,0.50
2023-10-12T17:25:06.903Z,0.50
2023-10-12T17:27:37.060Z,0.60
2023-10-12T17:30:07.703Z,0.50
2023-10-12T17:32:38.023Z,0.60
2023-10-12T17:35:07.204Z,0.50
2023-10-12T17:37:35.837Z,0.57
2023-10-12T17:40:07.064Z,0.68
2023-10-12T17:42:35.784Z,1.77
2023-10-12T17:45:10.416Z,1.00
2023-10-12T17:47:41.422Z,0.70
2023-10-12T17:50:15.245Z,0.65
2023-10-12T17:52:44.327Z,0.70
2023-10-12T17:55:17.564Z,0.50
2023-10-12T17:57:47.416Z,0.80
2023-10-12T18:00:20.324Z,1.10
2023-10-12T18:02:51.436Z,0.68
2023-10-12T18:05:20.600Z,0.90
2023-10-12T18:07:55.160Z,0.65
2023-10-12T18:10:26.717Z,1.20
2023-10-12T18:12:55.821Z,1.33
2023-10-12T18:15:26.631Z,0.70
2023-10-12T18:17:57.008Z,1.00
2023-10-12T18:20:26.073Z,0.52
2023-10-12T18:22:54.753Z,0.60
2023-10-12T18:25:23.799Z,0.70
2023-10-12T18:27:52.472Z,0.60
2023-10-12T18:30:21.395Z,0.65
2023-10-12T18:32:50.648Z,0.70
2023-10-12T18:35:21.989Z,0.52
2023-10-12T18:37:51.477Z,0.45
2023-10-12T18:40:23.792Z,0.60
2023-10-12T18:42:55.863Z,0.70
2023-10-12T18:45:26.127Z,0.90
2023-10-12T18:47:56.434Z,0.60
2023-10-12T18:50:28.048Z,0.60
2023-10-12T18:52:56.836Z,0.47
2023-10-12T18:55:25.521Z,0.50
2023-10-12T18:57:55.028Z,0.40
2023-10-12T19:00:23.851Z,0.55
2023-10-12T19:02:55.739Z,0.50
2023-10-12T19:05:26.454Z,0.47
2023-10-12T19:07:56.409Z,0.90
2023-10-12T19:10:25.082Z,0.40
2023-10-12T19:12:56.193Z,0.80
2023-10-12T19:15:27.085Z,0.70
2023-10-12T19:17:56.321Z,0.63
2023-10-12T19:20:26.397Z,0.50
2023-10-12T19:22:56.858Z,0.68
2023-10-12T19:25:25.795Z,0.60
2023-10-12T19:27:55.753Z,0.57
2023-10-12T19:30:24.595Z,0.70
2023-10-12T19:32:54.090Z,0.40
2023-10-12T19:35:23.095Z,0.60
2023-10-12T19:37:53.211Z,0.80
2023-10-12T19:40:22.486Z,0.60
2023-10-12T19:42:56.980Z,0.63
2023-10-12T19:45:26.165Z,0.75
2023-10-12T19:47:58.326Z,0.47
2023-10-12T19:50:28.026Z,0.63
2023-10-12T19:52:58.266Z,0.50
2023-10-12T19:55:27.205Z,0.57
2023-10-12T19:57:56.287Z,0.60
2023-10-12T20:00:31.757Z,0.52
2023-10-12T20:03:18.005Z,0.65
2023-10-12T20:05:49.227Z,0.50
2023-10-12T20:08:20.436Z,0.50
2023-10-12T20:10:50.021Z,0.50
2023-10-12T20:13:20.982Z,0.60
2023-10-12T20:15:52.907Z,0.52
2023-10-12T20:18:21.974Z,0.60
2023-10-12T20:20:51.926Z,0.55
2023-10-12T20:23:22.061Z,0.50
2023-10-12T20:25:53.012Z,0.57
2023-10-12T20:28:24.146Z,0.52
2023-10-12T20:30:54.186Z,0.60
2023-10-12T20:33:24.384Z,0.60
2023-10-12T20:35:58.522Z,0.50
2023-10-12T20:38:29.373Z,0.60
2023-10-12T20:40:59.051Z,0.82
2023-10-12T20:43:27.976Z,0.45
2023-10-12T20:45:58.890Z,0.70
2023-10-12T20:48:28.649Z,0.50
2023-10-12T20:51:01.147Z,0.50
2023-10-12T20:53:34.391Z,0.70
2023-10-12T20:56:08.498Z,0.43
2023-10-12T20:58:44.412Z,0.50
2023-10-12T21:01:25.603Z,0.63
2023-10-12T21:03:56.222Z,0.60
2023-10-12T21:06:30.041Z,0.47
2023-10-12T21:09:02.630Z,0.60
2023-10-12T21:11:33.413Z,0.60
2023-10-12T21:14:08.544Z,0.60
2023-10-12T21:16:37.795Z,0.57
2023-10-12T21:19:14.813Z,0.60
2023-10-12T21:21:43.822Z,0.50
2023-10-12T21:24:19.524Z,0.47
2023-10-12T21:26:50.120Z,0.50
2023-10-12T21:29:21.113Z,0.47
2023-10-12T21:32:02.755Z,0.60
2023-10-12T21:34:33.351Z,0.50
2023-10-12T21:37:03.706Z,0.50
2023-10-12T21:39:42.734Z,0.60
2023-10-12T21:42:12.540Z,0.90
2023-10-12T21:44:41.995Z,0.90
2023-10-12T21:47:11.936Z,0.75
2023-10-12T21:49:41.557Z,0.70
2023-10-12T21:52:10.428Z,0.68
2023-10-12T21:54:41.503Z,0.50
2023-10-12T21:57:12.002Z,0.50
2023-10-12T21:59:42.705Z,0.47
2023-10-12T22:02:20.024Z,0.65
2023-10-12T22:04:49.413Z,0.60
2023-10-12T22:07:18.585Z,0.40
2023-10-12T22:10:03.791Z,0.60
2023-10-12T22:12:36.251Z,0.63
2023-10-12T22:15:15.050Z,0.50
2023-10-12T22:17:48.824Z,0.60
2023-10-12T22:20:20.194Z,0.70
2023-10-12T22:22:48.885Z,0.50
2023-10-12T22:25:19.055Z,0.60
2023-10-12T22:27:47.885Z,0.40
2023-10-12T22:30:18.879Z,0.52
2023-10-12T22:32:48.678Z,0.75
2023-10-12T22:35:18.236Z,0.50
2023-10-12T22:37:47.228Z,0.40
2023-10-12T22:40:18.131Z,0.57
2023-10-12T22:42:48.912Z,0.50
2023-10-12T22:45:19.237Z,0.60
2023-10-12T22:47:48.104Z,0.60
2023-10-12T22:50:17.345Z,0.95
2023-10-12T22:52:47.383Z,0.60
2023-10-12T22:55:17.095Z,0.70
2023-10-12T22:57:46.253Z,0.68
2023-10-12T23:00:22.975Z,0.40
2023-10-12T23:02:52.406Z,0.60
2023-10-12T23:05:23.504Z,0.60
2023-10-12T23:07:52.395Z,0.70
2023-10-12T23:10:24.669Z,0.50
2023-10-12T23:12:54.421Z,0.73
2023-10-12T23:15:24.521Z,0.52
2023-10-12T23:18:17.285Z,0.50
2023-10-12T23:20:47.422Z,0.50
2023-10-12T23:23:18.873Z,0.70
2023-10-12T23:25:49.085Z,0.40
2023-10-12T23:28:18.815Z,0.60
2023-10-12T23:30:53.479Z,0.50
2023-10-12T23:33:24.164Z,0.50
2023-10-12T23:35:53.719Z,0.70
2023-10-12T23:38:35.192Z,0.68
2023-10-12T23:41:19.501Z,0.40
2023-10-12T23:43:55.036Z,0.82
2023-10-12T23:46:26.250Z,0.60
2023-10-12T23:49:15.705Z,0.60
2023-10-12T23:51:44.521Z,0.80
2023-10-12T23:54:19.498Z,0.70
2023-10-12T23:56:52.055Z,0.73
2023-10-12T23:59:22.587Z,0.65
